Time;durP1;ratioP1;P1;durP2;ratioP2;P2;SDS_P1;SDS_P2;PMS_P1;PMS_P2;Temp;Humidity;BMP_temperature;BMP_pressure;BME280_temperature;BME280_humidity;BME280_pressure;Samples;Min_cycle;Max_cycle;Signal;HPM_P1;HPM_P2
2021/11/13 00:01:35;;;;;;;2.15;1.98;;;2.50;99.90;;;;;;5072432;28;20048;-69
2021/11/13 00:04:19;;;;;;;0.20;0.20;;;2.50;99.90;;;;;;5071942;28;20127;-69
2021/11/13 00:07:06;;;;;;;16.23;1.88;;;2.50;99.90;;;;;;5072060;28;20094;-69
2021/11/13 00:09:51;;;;;;;9.80;3.80;;;2.50;99.90;;;;;;5072110;28;20040;-69
2021/11/13 00:12:35;;;;;;;1.77;1.67;;;2.50;99.90;;;;;;5072128;28;20039;-70
2021/11/13 00:15:21;;;;;;;0.20;0.20;;;2.50;99.90;;;;;;5071921;28;20044;-70
2021/11/13 00:18:07;;;;;;;1.30;1.25;;;2.50;99.90;;;;;;5072410;28;20052;-70
2021/11/13 00:20:51;;;;;;;1.15;1.13;;;2.50;99.90;;;;;;5070993;28;20091;-70
2021/11/13 00:23:36;;;;;;;1.10;1.05;;;2.50;99.90;;;;;;5070920;28;20031;-71
2021/11/13 00:26:22;;;;;;;3.15;2.90;;;2.50;99.90;;;;;;5071045;28;20043;-69
2021/11/13 00:29:09;;;;;;;2.22;2.13;;;2.50;99.90;;;;;;5071853;28;20400;-70
2021/11/13 00:31:54;;;;;;;0.10;0.10;;;2.50;99.90;;;;;;5072444;28;20086;-70
2021/11/13 00:34:39;;;;;;;2.05;1.95;;;2.60;99.90;;;;;;5072027;28;20397;-70
2021/11/13 00:37:23;;;;;;;2.30;2.17;;;2.60;99.90;;;;;;5056822;28;20106;-70
2021/11/13 00:40:12;;;;;;;0.50;0.50;;;2.60;99.90;;;;;;5085133;28;20492;-70
2021/11/13 00:42:56;;;;;;;12.15;3.80;;;2.60;99.90;;;;;;5071894;28;20043;-70
2021/11/13 00:45:40;;;;;;;3.42;3.13;;;2.60;99.90;;;;;;5071974;28;20044;-70
2021/11/13 00:48:25;;;;;;;2.45;2.28;;;2.60;99.90;;;;;;5071804;28;20443;-70
2021/11/13 00:51:10;;;;;;;3.00;2.80;;;2.50;99.90;;;;;;5071425;28;20086;-70
2021/11/13 00:53:54;;;;;;;34.85;3.33;;;2.50;99.90;;;;;;5070885;28;20065;-70
2021/11/13 00:56:38;;;;;;;0.30;0.30;;;2.50;99.90;;;;;;5075313;28;20043;-70
2021/11/13 00:59:23;;;;;;;1.58;1.48;;;2.50;99.90;;;;;;5075319;28;20051;-70
2021/11/13 01:02:08;;;;;;;2.20;0.85;;;2.40;99.90;;;;;;5075397;28;20043;-70
2021/11/13 01:04:52;;;;;;;0.20;0.20;;;2.40;99.90;;;;;;5074139;28;20094;-70
2021/11/13 01:07:37;;;;;;;22.20;4.40;;;2.40;99.90;;;;;;5074363;28;20116;-69
2021/11/13 01:10:21;;;;;;;0.20;0.20;;;2.40;99.90;;;;;;5075319;28;20086;-69
2021/11/13 01:13:06;;;;;;;5.28;2.35;;;2.40;99.90;;;;;;5088545;28;20043;-70
2021/11/13 01:15:51;;;;;;;7.93;1.77;;;2.40;99.90;;;;;;5074379;28;20043;-70
2021/11/13 01:18:38;;;;;;;0.32;0.32;;;2.40;99.90;;;;;;5080486;28;20039;-70
2021/11/13 01:21:24;;;;;;;4.78;3.42;;;2.40;99.90;;;;;;5079137;28;20125;-69
2021/11/13 01:24:09;;;;;;;0.43;0.43;;;2.40;99.90;;;;;;5074518;28;20102;-69
2021/11/13 01:26:53;;;;;;;2.50;2.30;;;2.40;99.90;;;;;;5074914;28;20040;-71
2021/11/13 01:29:37;;;;;;;0.65;0.65;;;2.40;99.90;;;;;;5078642;28;20043;-70
2021/11/13 01:32:22;;;;;;;8.68;4.10;;;2.50;99.90;;;;;;5078910;28;20105;-70
2021/11/13 01:35:08;;;;;;;2.65;1.85;;;2.40;99.90;;;;;;5078479;28;20115;-69
2021/11/13 01:37:53;;;;;;;3.65;2.17;;;2.40;99.90;;;;;;5078835;28;20117;-70
2021/11/13 01:40:38;;;;;;;0.17;0.17;;;2.40;99.90;;;;;;5078978;28;20047;-69
2021/11/13 01:43:23;;;;;;;4.68;2.08;;;2.40;99.90;;;;;;5079512;28;20044;-69
2021/11/13 01:46:12;;;;;;;3.28;1.83;;;2.50;99.90;;;;;;5078509;28;20101;-69
2021/11/13 01:48:56;;;;;;;3.63;3.40;;;2.50;99.90;;;;;;5078140;28;20542;-69
2021/11/13 01:51:44;;;;;;;0.30;0.30;;;2.50;99.90;;;;;;5077481;28;20600;-70
2021/11/13 01:54:32;;;;;;;2.55;2.28;;;2.40;99.90;;;;;;5073421;28;20050;-70
2021/11/13 01:57:21;;;;;;;2.55;2.38;;;2.50;99.90;;;;;;5074274;28;20115;-70
2021/11/13 02:00:06;;;;;;;3.30;1.10;;;2.40;99.90;;;;;;5074208;28;20125;-70
2021/11/13 02:02:51;;;;;;;0.47;0.47;;;2.40;99.90;;;;;;5074302;28;20104;-70
2021/11/13 02:05:35;;;;;;;1.25;1.23;;;2.40;99.90;;;;;;5073885;28;20039;-70
2021/11/13 02:08:20;;;;;;;5.80;2.00;;;2.40;99.90;;;;;;5072520;28;20051;-70
2021/11/13 02:11:04;;;;;;;0.43;0.43;;;2.40;99.90;;;;;;5087341;28;20090;-70
2021/11/13 02:13:51;;;;;;;1.92;1.83;;;2.40;99.90;;;;;;5072779;28;20038;-70
2021/11/13 02:16:36;;;;;;;0.45;0.45;;;2.40;99.90;;;;;;5074002;28;20047;-70
2021/11/13 02:19:21;;;;;;;1.13;1.13;;;2.40;99.90;;;;;;5073493;28;20063;-70
2021/11/13 02:22:05;;;;;;;0.50;0.50;;;2.50;99.90;;;;;;5073564;28;20055;-70
2021/11/13 02:24:50;;;;;;;0.52;0.52;;;2.50;99.90;;;;;;5072450;28;20451;-70
2021/11/13 02:27:34;;;;;;;0.90;0.90;;;2.40;99.90;;;;;;5073773;28;20445;-70
2021/11/13 02:30:20;;;;;;;0.65;0.65;;;2.50;99.90;;;;;;5073568;28;20067;-70
2021/11/13 02:33:05;;;;;;;1.50;1.40;;;2.50;99.90;;;;;;5072672;28;20055;-70
2021/11/13 02:35:53;;;;;;;0.52;0.52;;;2.50;99.90;;;;;;5072953;28;20054;-70
2021/11/13 02:38:40;;;;;;;1.20;1.20;;;2.50;99.90;;;;;;5072598;28;20044;-70
2021/11/13 02:41:28;;;;;;;4.57;1.60;;;2.50;99.90;;;;;;5072332;28;20059;-70
2021/11/13 02:44:15;;;;;;;0.47;0.47;;;2.50;99.90;;;;;;5072117;28;20038;-70
2021/11/13 02:47:02;;;;;;;2.13;1.25;;;2.60;99.90;;;;;;5073311;28;20059;-71
2021/11/13 02:49:48;;;;;;;0.25;0.25;;;2.60;99.90;;;;;;5073311;28;20102;-70
2021/11/13 02:52:56;;;;;;;0.88;0.88;;;2.60;99.90;;;;;;5072107;28;20496;-70
2021/11/13 02:55:41;;;;;;;7.78;3.70;;;2.60;99.90;;;;;;5072304;28;20178;-70
2021/11/13 02:58:26;;;;;;;0.10;0.10;;;2.60;99.90;;;;;;5072007;28;20035;-70
2021/11/13 03:01:22;;;;;;;0.20;0.20;;;2.60;99.90;;;;;;5073033;28;20048;-69
2021/11/13 03:04:06;;;;;;;1.75;1.58;;;2.60;99.90;;;;;;5072887;28;20533;-69
2021/11/13 03:06:51;;;;;;;0.70;0.70;;;2.70;99.90;;;;;;5072650;28;20102;-69
2021/11/13 03:09:36;;;;;;;0.95;0.95;;;2.70;99.90;;;;;;5072864;28;20089;-70
2021/11/13 03:12:20;;;;;;;0.10;0.10;;;2.70;99.90;;;;;;5072510;28;20139;-70
2021/11/13 03:15:12;;;;;;;0.20;0.20;;;2.60;99.90;;;;;;5072912;28;20040;-69
2021/11/13 03:17:59;;;;;;;0.45;0.45;;;2.60;99.90;;;;;;5071345;28;20048;-69
2021/11/13 03:20:43;;;;;;;0.70;0.70;;;2.70;99.90;;;;;;5072544;28;20087;-69
2021/11/13 03:23:28;;;;;;;1.58;1.50;;;2.70;99.90;;;;;;5072774;28;20078;-69
2021/11/13 03:26:22;;;;;;;4.47;3.50;;;2.70;99.90;;;;;;5072688;28;20128;-70
2021/11/13 03:29:26;;;;;;;4.05;2.85;;;2.70;99.90;;;;;;5071732;28;20093;-70
2021/11/13 03:32:10;;;;;;;1.60;1.50;;;2.70;99.90;;;;;;5071758;28;20082;-70
2021/11/13 03:34:55;;;;;;;0.22;0.22;;;2.70;99.90;;;;;;5057556;28;20405;-69
2021/11/13 03:37:41;;;;;;;0.65;0.65;;;2.70;99.90;;;;;;5072605;28;20066;-70
2021/11/13 03:40:26;;;;;;;0.20;0.20;;;2.60;99.90;;;;;;5071398;28;20074;-70
2021/11/13 03:43:13;;;;;;;0.10;0.10;;;2.60;99.90;;;;;;5071569;28;20528;-70
2021/11/13 03:45:58;;;;;;;4.75;1.50;;;2.60;99.90;;;;;;5071510;28;20105;-70
2021/11/13 03:48:43;;;;;;;0.68;0.68;;;2.60;99.90;;;;;;5072152;28;20098;-69
2021/11/13 03:51:28;;;;;;;0.10;0.10;;;2.60;99.90;;;;;;5071315;28;20094;-69
2021/11/13 03:54:12;;;;;;;1.42;1.38;;;2.60;99.90;;;;;;5072435;28;20039;-69
2021/11/13 03:56:57;;;;;;;0.10;0.10;;;2.60;99.90;;;;;;5071169;28;20644;-69
2021/11/13 03:59:41;;;;;;;8.45;2.05;;;2.60;99.90;;;;;;5072717;28;20555;-70
2021/11/13 04:02:26;;;;;;;0.20;0.20;;;2.70;99.90;;;;;;5071224;28;20135;-70
2021/11/13 04:05:11;;;;;;;0.17;0.17;;;2.60;99.90;;;;;;5071310;28;20040;-70
2021/11/13 04:07:56;;;;;;;0.68;0.68;;;2.60;99.90;;;;;;5072227;28;20504;-70
2021/11/13 04:10:40;;;;;;;1.23;1.15;;;2.70;99.90;;;;;;5072173;28;20094;-70
2021/11/13 04:13:25;;;;;;;2.75;2.60;;;2.60;99.90;;;;;;5072066;28;20035;-70
2021/11/13 04:16:09;;;;;;;0.65;0.65;;;2.60;99.90;;;;;;5072228;28;20086;-70
2021/11/13 04:18:54;;;;;;;1.05;0.90;;;2.70;99.90;;;;;;5071203;28;20059;-70
2021/11/13 04:21:39;;;;;;;0.93;0.93;;;2.70;99.90;;;;;;5070712;28;20530;-69
2021/11/13 04:24:24;;;;;;;7.50;0.95;;;2.70;99.90;;;;;;5071783;28;20082;-69
2021/11/13 04:27:08;;;;;;;1.27;1.25;;;2.70;99.90;;;;;;5072056;28;20075;-69
2021/11/13 04:29:53;;;;;;;0.70;0.70;;;2.70;99.90;;;;;;5072299;28;20097;-69
2021/11/13 04:32:38;;;;;;;2.58;2.35;;;2.80;99.90;;;;;;5075804;28;20067;-70
2021/11/13 04:35:34;;;;;;;0.10;0.10;;;2.80;99.90;;;;;;5075739;28;20039;-70
2021/11/13 04:38:19;;;;;;;1.60;1.52;;;2.80;99.90;;;;;;5074679;28;20102;-69
2021/11/13 04:41:06;;;;;;;2.30;1.58;;;2.70;99.90;;;;;;5081539;28;20490;-69
2021/11/13 04:43:50;;;;;;;1.33;0.88;;;2.80;99.90;;;;;;5074518;28;20035;-69
2021/11/13 04:46:35;;;;;;;1.95;1.65;;;2.70;99.90;;;;;;5074919;28;20067;-69
2021/11/13 04:49:19;;;;;;;0.10;0.10;;;2.70;99.90;;;;;;5074544;28;20439;-70
2021/11/13 04:52:06;;;;;;;0.40;0.40;;;2.80;99.90;;;;;;5075657;28;20090;-70
2021/11/13 04:54:51;;;;;;;0.22;0.22;;;2.70;99.90;;;;;;5075526;28;20090;-69
2021/11/13 04:57:36;;;;;;;1.73;1.63;;;2.70;99.90;;;;;;5075322;28;20389;-70
2021/11/13 05:00:26;;;;;;;0.32;0.30;;;2.70;99.90;;;;;;5074288;28;20039;-70
2021/11/13 05:03:10;;;;;;;0.10;0.10;;;2.70;99.90;;;;;;5074159;28;20052;-69
2021/11/13 05:05:55;;;;;;;0.77;0.50;;;2.70;99.90;;;;;;5074319;28;20087;-69
2021/11/13 05:08:39;;;;;;;0.88;0.88;;;2.70;99.90;;;;;;5075060;28;20638;-69
2021/11/13 05:11:25;;;;;;;0.30;0.30;;;2.70;99.90;;;;;;5075050;28;20066;-69
2021/11/13 05:14:09;;;;;;;0.10;0.10;;;2.70;99.90;;;;;;5075420;28;20504;-69
2021/11/13 05:16:54;;;;;;;0.50;0.50;;;2.70;99.90;;;;;;5073881;28;20040;-70
2021/11/13 05:19:38;;;;;;;0.10;0.10;;;2.70;99.90;;;;;;5075251;28;20039;-69
2021/11/13 05:22:23;;;;;;;2.05;1.95;;;2.70;99.90;;;;;;5073563;28;20051;-69
2021/11/13 05:25:10;;;;;;;0.75;0.75;;;2.70;99.90;;;;;;5074615;28;20165;-70
2021/11/13 05:27:55;;;;;;;1.10;0.63;;;2.70;99.90;;;;;;5074912;28;20047;-70
2021/11/13 05:30:39;;;;;;;0.68;0.38;;;2.70;99.90;;;;;;5074749;28;20044;-70
2021/11/13 05:33:26;;;;;;;2.53;2.33;;;2.70;99.90;;;;;;5074692;28;20514;-70
2021/11/13 05:36:11;;;;;;;0.10;0.10;;;2.70;99.90;;;;;;5073857;28;20048;-70
2021/11/13 05:38:55;;;;;;;0.10;0.10;;;2.70;99.90;;;;;;5075015;28;20040;-70
2021/11/13 05:41:40;;;;;;;0.10;0.10;;;2.70;99.90;;;;;;5073508;28;20065;-71
2021/11/13 05:44:24;;;;;;;1.38;1.30;;;2.70;99.90;;;;;;5074525;28;20043;-70
2021/11/13 05:47:09;;;;;;;12.50;1.90;;;2.70;99.90;;;;;;5074611;28;20082;-70
2021/11/13 05:49:54;;;;;;;0.10;0.10;;;2.60;99.90;;;;;;5074444;28;20120;-70
2021/11/13 05:52:41;;;;;;;2.80;2.53;;;2.60;99.90;;;;;;5073372;28;20043;-70
2021/11/13 05:55:26;;;;;;;0.22;0.22;;;2.60;99.90;;;;;;5074343;28;20511;-70
2021/11/13 05:58:10;;;;;;;0.10;0.10;;;2.50;99.90;;;;;;5074454;28;20044;-70
2021/11/13 06:00:54;;;;;;;0.88;0.82;;;2.50;99.90;;;;;;5074349;28;20040;-70
2021/11/13 06:03:39;;;;;;;0.50;0.50;;;2.50;99.90;;;;;;5073251;28;20040;-70
2021/11/13 06:06:23;;;;;;;0.10;0.10;;;2.50;99.90;;;;;;5074098;28;20436;-68
2021/11/13 06:09:08;;;;;;;0.10;0.10;;;2.50;99.90;;;;;;5073979;28;20097;-69
2021/11/13 06:11:53;;;;;;;0.28;0.28;;;2.50;99.90;;;;;;5073006;28;20058;-69
2021/11/13 06:14:40;;;;;;;1.35;1.33;;;2.50;99.90;;;;;;5073808;28;20175;-70
2021/11/13 06:17:25;;;;;;;0.55;0.55;;;2.50;99.90;;;;;;5073749;28;20113;-70
2021/11/13 06:20:10;;;;;;;0.30;0.30;;;2.50;99.90;;;;;;5073869;28;20127;-71
2021/11/13 06:22:55;;;;;;;0.47;0.47;;;2.50;99.90;;;;;;5073869;28;20048;-71
2021/11/13 06:25:40;;;;;;;3.72;3.50;;;2.50;99.90;;;;;;5073633;28;20055;-68
2021/11/13 06:28:24;;;;;;;0.10;0.10;;;2.50;99.90;;;;;;5072765;28;20535;-70
2021/11/13 06:31:09;;;;;;;1.27;1.23;;;2.50;99.90;;;;;;5073414;28;20036;-70
2021/11/13 06:33:53;;;;;;;1.10;1.02;;;2.50;99.90;;;;;;5073663;28;20125;-69
2021/11/13 06:36:38;;;;;;;1.50;1.40;;;2.50;99.90;;;;;;5077929;28;20126;-69
2021/11/13 06:39:22;;;;;;;3.30;1.50;;;2.50;99.90;;;;;;5093660;28;20079;-71
2021/11/13 06:42:07;;;;;;;3.15;2.22;;;2.50;99.90;;;;;;5093792;28;20065;-67
2021/11/13 06:44:52;;;;;;;0.20;0.20;;;2.60;99.90;;;;;;5092306;28;20447;-71
2021/11/13 06:47:37;;;;;;;0.43;0.43;;;2.60;99.90;;;;;;5092311;28;20043;-73
2021/11/13 06:50:21;;;;;;;0.80;0.77;;;2.60;99.90;;;;;;5093378;28;20089;-69
2021/11/13 06:53:06;;;;;;;0.82;0.80;;;2.60;99.90;;;;;;5093528;28;20031;-74
2021/11/13 06:55:51;;;;;;;0.55;0.55;;;2.60;99.90;;;;;;5092317;28;20047;-74
2021/11/13 06:58:36;;;;;;;0.55;0.55;;;2.60;99.90;;;;;;5093715;28;20043;-75
2021/11/13 07:01:20;;;;;;;1.30;1.25;;;2.60;99.90;;;;;;5106796;28;20527;-72
2021/11/13 07:04:05;;;;;;;0.57;0.57;;;2.50;99.90;;;;;;5093180;28;20094;-74
2021/11/13 07:06:49;;;;;;;0.13;0.13;;;2.60;99.90;;;;;;5091981;28;20035;-74
2021/11/13 07:09:34;;;;;;;1.88;1.55;;;2.60;99.90;;;;;;5092648;28;20063;-73
2021/11/13 07:12:19;;;;;;;0.15;0.15;;;2.60;99.90;;;;;;5093151;28;20523;-73
2021/11/13 07:15:05;;;;;;;0.20;0.20;;;2.70;99.90;;;;;;5092066;28;20047;-73
2021/11/13 07:17:50;;;;;;;0.32;0.32;;;2.70;99.90;;;;;;5093313;28;20085;-72
2021/11/13 07:20:34;;;;;;;0.70;0.70;;;2.70;99.90;;;;;;5092733;28;20493;-73
2021/11/13 07:23:20;;;;;;;0.50;0.50;;;2.80;99.90;;;;;;5093243;28;20558;-73
2021/11/13 07:26:06;;;;;;;0.60;0.60;;;2.80;99.90;;;;;;5092016;28;20084;-73
2021/11/13 07:28:52;;;;;;;0.35;0.35;;;2.80;99.90;;;;;;5092913;28;20137;-73
2021/11/13 07:31:37;;;;;;;0.17;0.17;;;2.80;99.90;;;;;;5092618;28;20046;-72
2021/11/13 07:34:22;;;;;;;0.10;0.10;;;2.80;99.90;;;;;;5092794;28;20047;-73
2021/11/13 07:37:06;;;;;;;2.47;2.28;;;2.90;99.90;;;;;;5093182;28;20046;-76
2021/11/13 07:39:53;;;;;;;0.20;0.20;;;2.90;99.90;;;;;;5091703;28;20058;-75
2021/11/13 07:42:38;;;;;;;0.15;0.15;;;3.00;99.90;;;;;;5080728;28;20101;-74
2021/11/13 07:45:22;;;;;;;1.02;1.02;;;3.00;99.90;;;;;;5092817;28;20043;-74
2021/11/13 07:48:07;;;;;;;1.30;1.27;;;3.00;99.90;;;;;;5091223;28;20031;-74
2021/11/13 07:50:52;;;;;;;0.32;0.32;;;3.10;99.90;;;;;;5092081;28;20104;-74
2021/11/13 07:53:37;;;;;;;0.40;0.40;;;3.10;99.90;;;;;;5091432;28;20100;-75
2021/11/13 07:56:21;;;;;;;0.30;0.30;;;3.20;99.90;;;;;;5091346;28;20062;-74
2021/11/13 07:59:06;;;;;;;8.25;2.63;;;3.20;99.90;;;;;;5092603;28;20070;-77
2021/11/13 08:01:50;;;;;;;1.08;1.08;;;3.30;99.90;;;;;;5075844;28;20043;-69
2021/11/13 08:04:35;;;;;;;1.52;1.35;;;3.30;99.90;;;;;;5072501;28;20039;-77
2021/11/13 08:07:19;;;;;;;1.95;0.55;;;3.40;99.90;;;;;;5093303;28;20097;-77
2021/11/13 08:10:06;;;;;;;4.85;3.50;;;3.40;99.90;;;;;;5096692;28;20075;-72
2021/11/13 08:12:51;;;;;;;1.35;1.27;;;3.50;99.90;;;;;;5095543;28;20047;-74
2021/11/13 08:15:36;;;;;;;0.65;0.65;;;3.50;99.90;;;;;;5096432;28;20438;-76
2021/11/13 08:18:21;;;;;;;1.25;1.25;;;3.60;99.90;;;;;;5081353;28;20043;-71
2021/11/13 08:21:05;;;;;;;0.17;0.17;;;3.60;99.90;;;;;;5096181;28;20058;-77
2021/11/13 08:23:50;;;;;;;0.95;0.95;;;3.60;99.90;;;;;;5095289;28;20115;-77
2021/11/13 08:26:35;;;;;;;2.90;1.25;;;3.60;99.90;;;;;;5095276;28;20047;-78
2021/11/13 08:29:19;;;;;;;0.20;0.20;;;3.60;99.90;;;;;;5096326;28;20047;-70
2021/11/13 08:32:08;;;;;;;1.60;1.50;;;3.70;99.90;;;;;;5095605;28;20035;-73
2021/11/13 08:34:52;;;;;;;1.25;1.23;;;3.70;99.90;;;;;;5096107;28;20550;-76
2021/11/13 08:37:40;;;;;;;0.17;0.17;;;3.80;99.90;;;;;;5094863;28;20047;-75
2021/11/13 08:40:25;;;;;;;2.65;1.60;;;3.90;99.90;;;;;;5095048;28;20043;-73
2021/11/13 08:43:11;;;;;;;0.47;0.47;;;3.90;99.90;;;;;;5095952;28;20082;-71
2021/11/13 08:45:55;;;;;;;2.88;2.65;;;4.00;99.90;;;;;;5095476;28;20054;-73
2021/11/13 08:48:40;;;;;;;10.68;2.60;;;4.00;99.90;;;;;;5094709;28;20605;-72
2021/11/13 08:51:25;;;;;;;0.30;0.30;;;4.10;99.90;;;;;;5095943;28;20038;-79
2021/11/13 08:54:09;;;;;;;2.15;2.05;;;4.20;99.90;;;;;;5094590;28;20071;-74
2021/11/13 08:56:57;;;;;;;0.30;0.30;;;4.30;99.90;;;;;;5095262;28;20129;-75
2021/11/13 08:59:41;;;;;;;1.05;1.05;;;4.30;99.90;;;;;;5080481;28;20063;-74
2021/11/13 09:02:28;;;;;;;0.38;0.38;;;4.40;99.90;;;;;;5095931;28;20085;-74
2021/11/13 09:05:13;;;;;;;0.20;0.20;;;4.50;99.90;;;;;;5095339;28;20105;-73
2021/11/13 09:07:59;;;;;;;10.25;2.22;;;4.50;99.90;;;;;;5074906;28;20082;-73
2021/11/13 09:10:45;;;;;;;0.40;0.40;;;4.60;99.90;;;;;;5075052;28;20566;-72
2021/11/13 09:13:34;;;;;;;1.20;0.60;;;4.70;99.90;;;;;;5075195;28;20042;-72
2021/11/13 09:16:19;;;;;;;2.90;1.30;;;4.70;99.90;;;;;;5075352;28;20503;-72
2021/11/13 09:19:06;;;;;;;1.50;1.40;;;4.70;99.90;;;;;;5075070;28;20048;-72
2021/11/13 09:21:52;;;;;;;0.30;0.30;;;4.70;99.90;;;;;;5073588;28;20106;-72
2021/11/13 09:24:36;;;;;;;0.65;0.65;;;4.70;99.90;;;;;;5073457;28;20086;-73
2021/11/13 09:27:22;;;;;;;0.45;0.45;;;4.70;99.90;;;;;;5074584;28;20048;-73
2021/11/13 09:30:14;;;;;;;0.25;0.25;;;4.70;99.90;;;;;;5073939;28;20043;-72
2021/11/13 09:32:59;;;;;;;0.98;0.98;;;4.70;99.90;;;;;;5074964;28;20374;-72
2021/11/13 09:35:45;;;;;;;0.90;0.90;;;4.70;99.90;;;;;;5073716;28;20535;-72
2021/11/13 09:38:36;;;;;;;1.35;1.25;;;4.70;99.90;;;;;;5073773;28;20086;-71
2021/11/13 09:41:21;;;;;;;4.40;2.47;;;4.80;99.90;;;;;;5074048;28;20044;-73
2021/11/13 09:44:07;;;;;;;2.78;1.90;;;4.80;99.90;;;;;;5088325;28;20446;-72
2021/11/13 09:46:52;;;;;;;0.30;0.30;;;4.90;99.90;;;;;;5094698;28;20047;-72
2021/11/13 09:49:37;;;;;;;1.00;1.00;;;4.80;99.90;;;;;;5073591;28;20397;-72
2021/11/13 09:52:22;;;;;;;0.68;0.68;;;4.80;99.90;;;;;;5094686;28;20561;-72
2021/11/13 09:55:09;;;;;;;0.30;0.30;;;4.80;99.90;;;;;;5094829;28;20043;-74
2021/11/13 09:57:54;;;;;;;0.30;0.30;;;4.90;99.90;;;;;;5094216;28;20132;-73
2021/11/13 10:00:42;;;;;;;0.47;0.47;;;4.80;99.90;;;;;;5094076;28;20051;-74
2021/11/13 10:03:27;;;;;;;2.47;2.38;;;4.90;99.90;;;;;;5094250;28;20438;-74
2021/11/13 10:06:15;;;;;;;0.30;0.30;;;4.90;99.90;;;;;;5089993;28;20169;-73
2021/11/13 10:08:59;;;;;;;0.10;0.10;;;5.00;99.90;;;;;;5086738;28;20913;-74
2021/11/13 10:11:49;;;;;;;0.10;0.10;;;5.10;99.90;;;;;;5073903;28;20090;-74
2021/11/13 10:14:38;;;;;;;4.57;3.75;;;5.10;99.90;;;;;;5072979;28;20567;-74
2021/11/13 10:17:26;;;;;;;2.47;1.05;;;5.10;99.90;;;;;;5072874;28;20038;-73
2021/11/13 10:20:22;;;;;;;0.10;0.10;;;5.10;99.90;;;;;;5058666;28;20094;-73
2021/11/13 10:23:08;;;;;;;0.20;0.20;;;5.20;99.90;;;;;;5089098;28;20062;-74
2021/11/13 10:25:59;;;;;;;3.83;1.30;;;5.20;99.90;;;;;;5093180;28;20122;-74
2021/11/13 10:29:00;;;;;;;0.43;0.43;;;5.30;99.90;;;;;;5092249;28;20051;-74
2021/11/13 10:31:58;;;;;;;4.75;2.58;;;5.30;99.90;;;;;;5058692;28;20114;-74
2021/11/13 10:34:49;;;;;;;0.35;0.35;;;5.40;99.90;;;;;;5073710;28;20039;-74
2021/11/13 10:37:34;;;;;;;0.55;0.55;;;5.40;99.90;;;;;;5073620;28;20042;-74
2021/11/13 10:40:28;;;;;;;1.13;1.05;;;5.50;99.90;;;;;;5086811;28;20074;-74
2021/11/13 10:43:12;;;;;;;4.47;2.53;;;5.50;99.90;;;;;;5073300;28;20100;-74
2021/11/13 10:46:14;;;;;;;1.38;1.27;;;5.60;99.90;;;;;;5086642;28;20035;-74
2021/11/13 10:48:59;;;;;;;1.23;1.17;;;5.60;99.90;;;;;;5071994;28;20044;-74
2021/11/13 10:51:54;;;;;;;1.08;1.08;;;5.60;99.90;;;;;;5073180;28;20047;-74
2021/11/13 10:54:47;;;;;;;1.20;1.10;;;5.60;99.90;;;;;;5086344;28;20040;-74
2021/11/13 10:57:32;;;;;;;1.17;1.17;;;5.60;99.90;;;;;;5085582;28;20409;-74
2021/11/13 11:00:18;;;;;;;0.28;0.28;;;5.70;99.90;;;;;;5073017;28;20063;-73
2021/11/13 11:03:06;;;;;;;2.38;2.20;;;5.80;99.90;;;;;;5072827;28;20401;-72
2021/11/13 11:05:51;;;;;;;1.55;1.27;;;5.80;99.90;;;;;;5072544;28;20046;-73
2021/11/13 11:08:39;;;;;;;1.05;0.73;;;5.90;99.90;;;;;;5085776;28;20090;-74
2021/11/13 11:11:35;;;;;;;2.38;2.28;;;5.90;99.90;;;;;;5085793;28;20073;-74
2021/11/13 11:14:23;;;;;;;0.55;0.55;;;5.90;99.90;;;;;;5077478;28;20110;-74
2021/11/13 11:17:14;;;;;;;1.38;1.30;;;6.00;99.90;;;;;;5071906;28;20536;-74
2021/11/13 11:20:14;;;;;;;0.32;0.32;;;5.90;99.90;;;;;;5072518;28;20043;-73
2021/11/13 11:23:12;;;;;;;0.15;0.15;;;5.90;99.90;;;;;;5095138;28;20051;-73
2021/11/13 11:26:14;;;;;;;0.45;0.45;;;5.90;99.90;;;;;;5091568;28;20043;-73
2021/11/13 11:28:58;;;;;;;;;;;5.90;99.90;;;;;;5092923;28;20517;-74
2021/11/13 11:31:51;;;;;;;0.30;0.30;;;6.00;99.90;;;;;;5091519;28;19914;-73
2021/11/13 11:34:41;;;;;;;2.63;2.42;;;6.00;99.90;;;;;;5092559;28;20059;-73
2021/11/13 11:37:34;;;;;;;0.57;0.57;;;6.00;99.90;;;;;;5091221;28;20039;-73
2021/11/13 11:40:28;;;;;;;1.00;1.00;;;6.00;99.90;;;;;;5091410;28;20101;-74
2021/11/13 11:43:15;;;;;;;3.83;3.50;;;6.10;99.90;;;;;;5091516;28;20542;-73
2021/11/13 11:45:59;;;;;;;1.23;0.93;;;6.10;99.90;;;;;;5091062;28;20040;-73
2021/11/13 11:48:44;;;;;;;1.08;1.05;;;6.20;99.90;;;;;;5092484;28;20380;-73
2021/11/13 11:51:29;;;;;;;1.95;1.88;;;6.30;99.90;;;;;;5077060;28;20127;-73
2021/11/13 11:54:15;;;;;;;0.10;0.10;;;6.30;99.90;;;;;;5092405;28;20036;-73
2021/11/13 11:57:00;;;;;;;0.93;0.93;;;6.30;99.90;;;;;;5091341;28;20042;-74
2021/11/13 11:59:46;;;;;;;0.73;0.73;;;6.30;99.90;;;;;;5091365;28;20043;-73
2021/11/13 12:02:46;;;;;;;0.93;0.93;;;6.40;99.90;;;;;;5091047;28;20132;-79
2021/11/13 12:05:36;;;;;;;0.93;0.93;;;6.40;99.90;;;;;;5091167;28;20116;-75
2021/11/13 12:08:24;;;;;;;0.43;0.43;;;6.40;99.90;;;;;;5091879;28;20055;-78
2021/11/13 12:11:22;;;;;;;2.05;1.85;;;6.50;99.90;;;;;;5077095;28;20052;-78
2021/11/13 12:14:32;;;;;;;1.20;1.20;;;6.50;99.90;;;;;;5092226;28;20042;-78
2021/11/13 12:17:33;;;;;;;0.32;0.32;;;6.60;99.90;;;;;;5092489;28;20035;-81
2021/11/13 12:20:28;;;;;;;1.90;1.80;;;6.60;99.90;;;;;;5091411;28;20059;-77
2021/11/13 12:23:52;;;;;;;1.52;1.42;;;6.60;99.90;;;;;;5091298;28;20038;-78
2021/11/13 12:26:40;;;;;;;2.95;2.67;;;6.60;99.90;;;;;;5092257;28;20046;-77
2021/11/13 12:29:25;;;;;;;0.20;0.20;;;6.50;99.90;;;;;;5090817;28;20050;-75
2021/11/13 12:32:13;;;;;;;0.15;0.15;;;6.50;99.90;;;;;;5091275;28;20058;-77
2021/11/13 12:35:01;;;;;;;0.40;0.40;;;6.50;99.90;;;;;;5071813;28;20044;-79
2021/11/13 12:37:45;;;;;;;4.15;2.45;;;6.50;99.90;;;;;;5070990;28;20123;-79
2021/11/13 12:40:39;;;;;;;10.15;3.67;;;6.50;99.90;;;;;;5071781;28;20128;-78
2021/11/13 12:43:23;;;;;;;2.40;2.15;;;6.50;99.90;;;;;;5056739;28;20032;-81
2021/11/13 12:46:30;;;;;;;3.95;3.58;;;6.50;99.90;;;;;;5070574;28;20047;-77
2021/11/13 12:49:17;;;;;;;0.20;0.20;;;6.50;99.90;;;;;;5071873;28;20039;-81
2021/11/13 12:52:09;;;;;;;0.70;0.70;;;6.50;99.90;;;;;;5074252;28;20048;-76
2021/11/13 12:55:15;;;;;;;0.20;0.20;;;6.50;99.90;;;;;;5074359;28;20072;-78
2021/11/13 12:58:15;;;;;;;0.30;0.30;;;6.60;99.90;;;;;;5075137;28;20097;-79
2021/11/13 13:01:00;;;;;;;1.70;1.15;;;6.60;99.90;;;;;;5074164;28;20091;-78
2021/11/13 13:03:44;;;;;;;1.10;1.05;;;6.60;99.90;;;;;;5086240;28;20035;-79
2021/11/13 13:06:29;;;;;;;2.05;1.83;;;6.70;99.90;;;;;;5095433;28;20076;-81
2021/11/13 13:09:15;;;;;;;0.28;0.28;;;6.80;99.90;;;;;;5095014;28;20108;-79
2021/11/13 13:12:03;;;;;;;0.75;0.63;;;6.80;99.90;;;;;;5095292;28;20097;-76
2021/11/13 13:15:07;;;;;;;0.52;0.52;;;6.80;99.90;;;;;;5080251;28;20047;-76
2021/11/13 13:17:54;;;;;;;0.60;0.60;;;6.80;99.90;;;;;;5093982;28;20043;-77
2021/11/13 13:20:45;;;;;;;0.20;0.20;;;6.80;99.90;;;;;;5094006;28;20050;-77
2021/11/13 13:23:31;;;;;;;0.20;0.20;;;6.80;99.90;;;;;;5094507;28;20047;-77
2021/11/13 13:26:19;;;;;;;0.30;0.30;;;6.70;99.90;;;;;;5093976;28;20550;-76
2021/11/13 13:29:18;;;;;;;0.20;0.20;;;6.80;99.90;;;;;;5094054;28;20043;-71
2021/11/13 13:32:13;;;;;;;4.75;2.85;;;6.70;99.90;;;;;;5093813;28;20043;-73
2021/11/13 13:35:07;;;;;;;0.85;0.85;;;6.70;99.90;;;;;;5093794;28;20054;-73
2021/11/13 13:38:13;;;;;;;0.93;0.90;;;6.80;99.90;;;;;;5082655;28;20086;-73
2021/11/13 13:41:04;;;;;;;2.17;1.65;;;6.80;99.90;;;;;;5094280;28;20058;-73
2021/11/13 13:43:50;;;;;;;5.25;2.92;;;6.80;99.90;;;;;;5094193;28;20147;-73
2021/11/13 13:46:42;;;;;;;1.05;1.05;;;6.90;99.90;;;;;;5094595;28;20440;-73
2021/11/13 13:49:28;;;;;;;0.20;0.20;;;6.80;99.90;;;;;;5093539;28;20043;-73
2021/11/13 13:52:13;;;;;;;1.52;0.77;;;6.80;99.90;;;;;;5093515;28;20521;-74
2021/11/13 13:54:58;;;;;;;0.10;0.10;;;6.80;99.90;;;;;;5093505;28;20085;-73
2021/11/13 13:58:05;;;;;;;1.08;1.08;;;6.80;99.90;;;;;;5093461;28;20116;-73
2021/11/13 14:00:50;;;;;;;0.10;0.10;;;6.80;99.90;;;;;;5094265;28;20108;-73
2021/11/13 14:03:34;;;;;;;0.85;0.85;;;6.90;99.90;;;;;;5093695;28;20136;-73
2021/11/13 14:06:24;;;;;;;1.45;1.35;;;6.90;99.90;;;;;;5094138;28;20157;-74
2021/11/13 14:09:13;;;;;;;5.40;2.40;;;6.90;99.90;;;;;;5086675;28;20047;-73
2021/11/13 14:11:57;;;;;;;2.28;1.95;;;6.90;99.90;;;;;;5086262;28;20067;-73
2021/11/13 14:14:42;;;;;;;2.50;2.30;;;6.90;99.90;;;;;;5072084;28;20047;-71
2021/11/13 14:17:27;;;;;;;1.42;1.33;;;6.90;99.90;;;;;;5073796;28;20120;-72
2021/11/13 14:20:22;;;;;;;2.65;1.38;;;6.90;99.90;;;;;;5072669;28;20043;-78
2021/11/13 14:23:12;;;;;;;0.73;0.73;;;7.00;99.90;;;;;;5073633;28;20446;-79
2021/11/13 14:26:04;;;;;;;0.35;0.35;;;7.00;99.90;;;;;;5073258;28;20126;-78
2021/11/13 14:28:56;;;;;;;0.60;0.60;;;6.90;99.90;;;;;;5073930;28;20086;-77
2021/11/13 14:31:41;;;;;;;2.00;1.30;;;7.00;99.90;;;;;;5086585;28;20067;-77
2021/11/13 14:34:26;;;;;;;1.48;1.13;;;7.00;99.90;;;;;;5073546;28;20078;-77
2021/11/13 14:37:15;;;;;;;1.38;1.30;;;7.10;99.90;;;;;;5073368;28;20078;-77
2021/11/13 14:40:07;;;;;;;0.77;0.77;;;7.10;99.90;;;;;;5086750;28;20086;-77
2021/11/13 14:42:51;;;;;;;1.15;1.13;;;7.10;99.90;;;;;;5073450;28;20085;-77